createdAt,value
2022-10-17T00:01:01.220Z,100.00
2022-10-17T00:03:35.021Z,100.00
2022-10-17T00:06:07.307Z,100.00
2022-10-17T00:08:34.285Z,100.00
2022-10-17T00:11:06.073Z,100.00
2022-10-17T00:16:06.016Z,100.00
2022-10-17T00:18:35.350Z,100.00
2022-10-17T00:21:02.497Z,100.00
2022-10-17T00:23:30.522Z,100.00
2022-10-17T00:26:02.108Z,100.00
2022-10-17T00:28:32.186Z,100.00
2022-10-17T00:31:02.468Z,100.00
2022-10-17T00:33:31.081Z,100.00
2022-10-17T00:36:16.549Z,100.00
2022-10-17T00:38:45.747Z,100.00
2022-10-17T00:41:15.952Z,100.00
2022-10-17T00:44:01.654Z,100.00
2022-10-17T00:46:36.657Z,100.00
2022-10-17T00:49:12.645Z,100.00
2022-10-17T00:51:58.804Z,100.00
2022-10-17T00:54:31.721Z,100.00
2022-10-17T00:56:59.669Z,100.00
2022-10-17T00:59:28.666Z,100.00
2022-10-17T01:02:25.999Z,100.00
2022-10-17T01:04:56.541Z,100.00
2022-10-17T01:07:26.285Z,100.00
2022-10-17T01:09:53.452Z,100.00
2022-10-17T01:12:23.333Z,100.00
2022-10-17T01:14:58.677Z,100.00
2022-10-17T01:17:52.565Z,100.00
2022-10-17T01:21:00.155Z,100.00
2022-10-17T01:23:41.292Z,100.00
2022-10-17T01:26:25.538Z,100.00
2022-10-17T01:29:17.104Z,100.00
2022-10-17T01:32:00.476Z,100.00
2022-10-17T01:34:37.558Z,100.00
2022-10-17T01:37:32.861Z,100.00
2022-10-17T01:40:12.212Z,100.00
2022-10-17T01:42:48.762Z,100.00
2022-10-17T01:45:34.545Z,100.00
2022-10-17T01:48:09.068Z,100.00
2022-10-17T01:50:41.896Z,100.00
2022-10-17T01:53:14.781Z,100.00
2022-10-17T01:55:49.690Z,100.00
2022-10-17T01:58:31.670Z,100.00
2022-10-17T02:01:03.006Z,100.00
2022-10-17T02:03:35.434Z,100.00
2022-10-17T02:06:06.678Z,100.00
2022-10-17T02:08:44.694Z,100.00
2022-10-17T02:11:23.813Z,100.00
2022-10-17T02:14:14.826Z,100.00
2022-10-17T02:16:53.229Z,100.00
2022-10-17T02:19:50.668Z,100.00
2022-10-17T02:22:58.749Z,100.00
2022-10-17T02:25:31.816Z,100.00
2022-10-17T02:28:08.284Z,100.00
2022-10-17T02:30:53.341Z,100.00
2022-10-17T02:33:49.998Z,100.00
2022-10-17T02:36:26.544Z,100.00
2022-10-17T02:38:55.232Z,100.00
2022-10-17T02:41:24.419Z,100.00
2022-10-17T02:43:58.804Z,100.00
2022-10-17T02:46:30.350Z,100.00
2022-10-17T02:49:05.859Z,100.00
2022-10-17T02:51:37.341Z,100.00
2022-10-17T02:54:29.162Z,100.00
2022-10-17T02:57:02.936Z,100.00
2022-10-17T03:02:06.295Z,100.00
2022-10-17T03:04:34.580Z,100.00
2022-10-17T03:07:03.844Z,100.00
2022-10-17T03:09:30.935Z,100.00
2022-10-17T03:11:58.083Z,100.00
2022-10-17T03:14:25.857Z,100.00
2022-10-17T03:16:53.010Z,100.00
2022-10-17T03:19:20.668Z,100.00
2022-10-17T03:21:48.319Z,100.00
2022-10-17T03:24:15.594Z,100.00
2022-10-17T03:26:42.712Z,100.00
2022-10-17T03:29:12.274Z,100.00
2022-10-17T03:31:39.489Z,100.00
2022-10-17T03:34:07.927Z,100.00
2022-10-17T03:36:34.982Z,100.00
2022-10-17T03:39:02.441Z,100.00
2022-10-17T03:41:29.756Z,100.00
2022-10-17T03:43:56.836Z,100.00
2022-10-17T03:46:24.477Z,100.00
2022-10-17T03:48:52.180Z,100.00
2022-10-17T03:51:20.534Z,100.00
2022-10-17T03:53:52.634Z,100.00
2022-10-17T03:56:24.459Z,100.00
2022-10-17T03:58:59.700Z,100.00
2022-10-17T04:01:28.088Z,100.00
2022-10-17T04:03:57.591Z,100.00
2022-10-17T04:06:27.614Z,100.00
2022-10-17T04:08:57.048Z,100.00
2022-10-17T04:11:59.081Z,100.00
2022-10-17T04:14:26.454Z,100.00
2022-10-17T04:16:54.746Z,100.00
2022-10-17T04:19:22.288Z,100.00
2022-10-17T04:21:50.148Z,100.00
2022-10-17T04:24:18.021Z,100.00
2022-10-17T04:26:58.548Z,100.00
2022-10-17T04:29:29.973Z,100.00
2022-10-17T04:32:15.207Z,100.00
2022-10-17T04:34:49.358Z,100.00
2022-10-17T04:37:17.297Z,100.00
2022-10-17T04:39:46.291Z,100.00
2022-10-17T04:42:13.238Z,100.00
2022-10-17T04:44:40.940Z,100.00
2022-10-17T04:47:08.632Z,100.00
2022-10-17T04:49:36.007Z,100.00
2022-10-17T04:52:09.260Z,100.00
2022-10-17T04:54:44.429Z,100.00
2022-10-17T04:57:14.309Z,100.00
2022-10-17T04:59:48.611Z,100.00
2022-10-17T05:02:35.868Z,100.00
2022-10-17T05:05:04.321Z,100.00
2022-10-17T05:07:31.197Z,100.00
2022-10-17T05:10:10.915Z,100.00
2022-10-17T05:12:39.801Z,100.00
2022-10-17T05:15:07.981Z,100.00
2022-10-17T05:17:35.171Z,100.00
2022-10-17T05:20:02.702Z,100.00
2022-10-17T05:22:31.983Z,100.00
2022-10-17T05:24:59.976Z,100.00
2022-10-17T05:27:27.025Z,100.00
2022-10-17T05:29:54.115Z,100.00
2022-10-17T05:32:27.354Z,100.00
2022-10-17T05:34:57.445Z,100.00
2022-10-17T05:37:25.787Z,100.00
2022-10-17T05:39:55.712Z,100.00
2022-10-17T05:42:23.182Z,100.00
2022-10-17T05:44:50.563Z,100.00
2022-10-17T05:47:19.872Z,100.00
2022-10-17T05:49:51.548Z,100.00
2022-10-17T05:52:24.222Z,100.00
2022-10-17T05:55:12.624Z,100.00
2022-10-17T05:57:40.152Z,100.00
2022-10-17T06:00:12.762Z,100.00
2022-10-17T06:02:48.935Z,100.00
2022-10-17T06:05:18.633Z,100.00
2022-10-17T06:07:47.257Z,100.00
2022-10-17T06:10:16.571Z,100.00
2022-10-17T06:12:44.817Z,100.00
2022-10-17T06:15:12.518Z,100.00
2022-10-17T06:17:42.945Z,100.00
2022-10-17T06:20:10.408Z,100.00
2022-10-17T06:22:37.841Z,100.00
2022-10-17T06:25:10.363Z,100.00
2022-10-17T06:27:37.357Z,100.00
2022-10-17T06:30:08.016Z,100.00
2022-10-17T06:32:34.930Z,100.00
2022-10-17T06:35:02.057Z,100.00
2022-10-17T06:37:36.541Z,100.00
2022-10-17T06:40:09.194Z,100.00
2022-10-17T06:42:41.632Z,100.00
2022-10-17T06:45:24.510Z,100.00
2022-10-17T06:48:12.845Z,100.00
2022-10-17T06:50:44.406Z,100.00
2022-10-17T06:53:15.752Z,100.00
2022-10-17T06:56:03.236Z,100.00
2022-10-17T06:58:59.080Z,100.00
2022-10-17T07:01:32.125Z,100.00
2022-10-17T07:04:00.796Z,100.00
2022-10-17T07:06:29.586Z,100.00
2022-10-17T07:09:01.052Z,100.00
2022-10-17T07:11:28.351Z,100.00
2022-10-17T07:13:55.303Z,100.00
2022-10-17T07:16:22.759Z,100.00
2022-10-17T07:19:01.107Z,100.00
2022-10-17T07:21:36.558Z,100.00
2022-10-17T07:24:09.267Z,100.00
2022-10-17T07:26:36.946Z,100.00
2022-10-17T07:29:06.466Z,100.00
2022-10-17T07:31:54.045Z,75.60
2022-10-17T07:34:21.175Z,72.61
2022-10-17T07:36:49.694Z,70.00
2022-10-17T07:39:16.854Z,69.64
2022-10-17T07:41:45.809Z,68.70
2022-10-17T07:44:15.483Z,70.02
2022-10-17T07:46:47.989Z,68.40
2022-10-17T07:49:15.732Z,68.78
2022-10-17T07:54:17.439Z,69.51
2022-10-17T07:56:50.443Z,72.08
2022-10-17T07:59:20.569Z,74.17
2022-10-17T08:01:50.197Z,71.35
2022-10-17T08:04:17.550Z,72.81
2022-10-17T08:06:44.776Z,74.87
2022-10-17T08:09:11.674Z,73.36
2022-10-17T08:11:43.995Z,76.34
2022-10-17T08:14:14.158Z,77.69
2022-10-17T08:16:43.778Z,80.46
2022-10-17T08:19:13.423Z,87.09
2022-10-17T08:21:41.448Z,89.74
2022-10-17T08:24:08.808Z,95.10
2022-10-17T08:26:42.337Z,99.37
2022-10-17T08:29:16.129Z,100.00
2022-10-17T08:31:47.846Z,100.00
2022-10-17T08:34:18.136Z,100.00
2022-10-17T08:36:45.341Z,100.00
2022-10-17T08:39:12.336Z,100.00
2022-10-17T08:41:54.497Z,100.00
2022-10-17T08:44:38.384Z,100.00
2022-10-17T08:47:11.931Z,100.00
2022-10-17T08:50:01.250Z,100.00
2022-10-17T08:52:47.586Z,100.00
2022-10-17T08:55:40.083Z,100.00
2022-10-17T08:58:14.674Z,100.00
2022-10-17T09:00:50.554Z,100.00
2022-10-17T09:03:32.673Z,100.00
2022-10-17T09:06:19.733Z,100.00
2022-10-17T09:09:08.166Z,100.00
2022-10-17T09:12:04.152Z,100.00
2022-10-17T09:15:03.997Z,100.00
2022-10-17T09:17:41.691Z,100.00
2022-10-17T09:20:15.097Z,100.00
2022-10-17T09:22:52.315Z,100.00
2022-10-17T09:25:21.093Z,100.00
2022-10-17T09:27:52.542Z,99.42
2022-10-17T09:30:44.148Z,100.00
2022-10-17T09:33:23.363Z,99.64
2022-10-17T09:36:05.173Z,96.40
2022-10-17T09:38:40.516Z,97.29
2022-10-17T09:41:42.795Z,97.60
2022-10-17T09:44:20.379Z,96.07
2022-10-17T09:47:11.034Z,98.57
2022-10-17T09:49:45.658Z,96.53
2022-10-17T09:52:18.729Z,98.21
2022-10-17T09:54:48.162Z,94.96
2022-10-17T09:57:19.338Z,92.72
2022-10-17T09:59:55.809Z,94.29
2022-10-17T10:02:24.951Z,91.49
2022-10-17T10:05:09.791Z,91.45
2022-10-17T10:07:39.758Z,91.18
2022-10-17T10:10:23.467Z,88.87
2022-10-17T10:13:06.780Z,89.73
2022-10-17T10:15:37.927Z,89.50
2022-10-17T10:18:27.850Z,87.89
2022-10-17T10:21:26.035Z,88.81
2022-10-17T10:24:15.585Z,87.93
2022-10-17T10:26:54.438Z,88.26
2022-10-17T10:29:25.226Z,88.43
2022-10-17T10:31:53.504Z,88.54
2022-10-17T10:34:28.982Z,87.57
2022-10-17T10:36:59.251Z,87.81
2022-10-17T10:39:28.584Z,85.05
2022-10-17T10:41:55.947Z,84.31
2022-10-17T10:44:26.516Z,82.87
2022-10-17T10:47:08.201Z,83.81
2022-10-17T10:49:42.734Z,82.80
2022-10-17T10:52:23.906Z,83.59
2022-10-17T10:55:16.306Z,82.34
2022-10-17T10:57:47.147Z,81.44
2022-10-17T11:00:23.291Z,80.43
2022-10-17T11:03:25.116Z,79.93
2022-10-17T11:06:02.533Z,80.63
2022-10-17T11:08:50.464Z,79.03
2022-10-17T11:11:33.684Z,78.57
2022-10-17T11:14:25.660Z,78.79
2022-10-17T11:16:59.764Z,79.14
2022-10-17T11:19:44.678Z,79.04
2022-10-17T11:22:16.424Z,76.33
2022-10-17T11:24:57.004Z,76.61
2022-10-17T11:27:25.184Z,76.12
2022-10-17T11:29:52.205Z,75.97
2022-10-17T11:32:44.133Z,76.97
2022-10-17T11:35:29.061Z,76.13
2022-10-17T11:38:08.161Z,76.57
2022-10-17T11:40:39.476Z,75.74
2022-10-17T11:43:15.473Z,74.90
2022-10-17T11:45:52.846Z,75.09
2022-10-17T11:49:01.892Z,74.75
2022-10-17T11:54:38.158Z,73.30
2022-10-17T11:57:14.913Z,73.03
2022-10-17T12:00:00.787Z,72.80
2022-10-17T12:02:38.083Z,71.63
2022-10-17T12:05:22.328Z,71.90
2022-10-17T12:08:03.031Z,71.57
2022-10-17T12:10:42.380Z,73.11
2022-10-17T12:13:29.421Z,72.05
2022-10-17T12:15:58.673Z,71.01
2022-10-17T12:18:29.511Z,70.39
2022-10-17T12:20:58.723Z,70.62
2022-10-17T12:23:30.572Z,71.34
2022-10-17T12:26:04.863Z,72.05
2022-10-17T12:28:39.293Z,70.71
2022-10-17T12:31:15.747Z,69.51
2022-10-17T12:33:48.449Z,69.64
2022-10-17T12:36:18.764Z,70.18
2022-10-17T12:38:49.924Z,69.62
2022-10-17T12:41:40.455Z,68.69
2022-10-17T12:44:13.714Z,68.09
2022-10-17T12:46:45.833Z,68.58
2022-10-17T12:49:42.386Z,67.39
2022-10-17T12:52:26.772Z,67.35
2022-10-17T12:55:12.973Z,67.79
2022-10-17T12:58:04.031Z,66.72
2022-10-17T13:01:11.783Z,66.74
2022-10-17T13:03:53.416Z,66.95
2022-10-17T13:06:24.894Z,66.66
2022-10-17T13:09:03.916Z,66.21
2022-10-17T13:11:35.528Z,66.92
2022-10-17T13:14:09.135Z,67.91
2022-10-17T13:16:43.761Z,65.72
2022-10-17T13:19:16.687Z,66.46
2022-10-17T13:21:51.781Z,66.69
2022-10-17T13:24:23.236Z,66.26
2022-10-17T13:26:50.476Z,66.38
2022-10-17T13:29:18.178Z,66.37
2022-10-17T13:31:45.285Z,66.40
2022-10-17T13:34:24.897Z,65.40
2022-10-17T13:36:58.197Z,65.30
2022-10-17T13:39:44.839Z,64.01
2022-10-17T13:42:27.702Z,65.02
2022-10-17T13:44:55.958Z,64.53
2022-10-17T13:47:25.594Z,64.60
2022-10-17T13:49:55.513Z,63.98
2022-10-17T13:52:27.430Z,63.70
2022-10-17T13:54:56.589Z,63.80
2022-10-17T13:57:27.469Z,63.74
2022-10-17T13:59:59.537Z,64.21
2022-10-17T14:02:29.071Z,64.78
2022-10-17T14:05:17.134Z,63.52
2022-10-17T14:08:09.910Z,64.35
2022-10-17T14:10:35.468Z,63.41
2022-10-17T14:13:10.294Z,63.59
2022-10-17T14:15:37.707Z,62.72
2022-10-17T14:18:08.353Z,63.23
2022-10-17T14:23:41.962Z,62.07
2022-10-17T14:26:37.050Z,62.13
2022-10-17T14:29:07.353Z,62.02
2022-10-17T14:31:37.094Z,61.95
2022-10-17T14:34:07.223Z,60.72
2022-10-17T14:36:42.314Z,60.81
2022-10-17T14:39:21.109Z,60.29
2022-10-17T14:41:49.671Z,60.14
2022-10-17T14:44:27.088Z,59.72
2022-10-17T14:47:06.016Z,60.10
2022-10-17T14:49:42.699Z,60.65
2022-10-17T14:52:14.897Z,60.02
2022-10-17T14:54:46.788Z,60.66
2022-10-17T14:57:23.397Z,60.90
2022-10-17T14:59:54.204Z,59.55
2022-10-17T15:02:25.993Z,59.04
2022-10-17T15:04:53.468Z,58.87
2022-10-17T15:07:21.434Z,59.63
2022-10-17T15:09:52.625Z,59.79
2022-10-17T15:12:23.326Z,60.01
2022-10-17T15:14:51.674Z,59.71
2022-10-17T15:17:25.716Z,59.51
2022-10-17T15:19:52.812Z,60.34
2022-10-17T15:22:19.989Z,59.82
2022-10-17T15:24:47.065Z,59.79
2022-10-17T15:27:19.908Z,60.36
2022-10-17T15:29:47.742Z,60.09
2022-10-17T15:32:17.141Z,61.63
2022-10-17T15:34:44.569Z,61.37
2022-10-17T15:37:22.144Z,61.39
2022-10-17T15:39:54.905Z,61.44
2022-10-17T15:42:28.053Z,62.08
2022-10-17T15:44:58.284Z,61.71
2022-10-17T15:47:29.679Z,60.68
2022-10-17T15:49:57.245Z,61.09
2022-10-17T15:52:24.903Z,61.13
2022-10-17T15:54:52.389Z,61.67
2022-10-17T15:57:22.761Z,60.54
2022-10-17T15:59:51.674Z,61.60
2022-10-17T16:02:21.081Z,60.98
2022-10-17T16:04:49.471Z,60.57
2022-10-17T16:07:17.544Z,60.97
2022-10-17T16:09:45.598Z,60.77
2022-10-17T16:12:30.229Z,60.91
2022-10-17T16:14:57.436Z,60.81
2022-10-17T16:17:24.606Z,60.27
2022-10-17T16:19:51.561Z,59.97
2022-10-17T16:22:32.424Z,60.47
2022-10-17T16:25:09.549Z,61.01
2022-10-17T16:27:39.861Z,61.44
2022-10-17T16:30:08.347Z,61.63
2022-10-17T16:32:35.556Z,61.68
2022-10-17T16:35:04.836Z,61.63
2022-10-17T16:37:32.436Z,61.69
2022-10-17T16:40:00.684Z,61.86
2022-10-17T16:42:28.301Z,61.71
2022-10-17T16:44:55.439Z,62.21
2022-10-17T16:47:22.673Z,62.20
2022-10-17T16:49:50.589Z,62.15
2022-10-17T16:52:17.683Z,62.40
2022-10-17T16:54:44.633Z,62.98
2022-10-17T16:57:11.745Z,62.60
2022-10-17T16:59:39.659Z,62.77
2022-10-17T17:02:07.664Z,62.33
2022-10-17T17:04:35.317Z,62.49
2022-10-17T17:07:03.114Z,63.14
2022-10-17T17:09:30.270Z,63.35
2022-10-17T17:11:57.915Z,63.19
2022-10-17T17:14:26.610Z,63.43
2022-10-17T17:16:54.072Z,63.23
2022-10-17T17:19:27.050Z,63.74
2022-10-17T17:21:57.428Z,63.62
2022-10-17T17:24:26.363Z,63.68
2022-10-17T17:26:56.014Z,64.06
2022-10-17T17:29:24.722Z,64.01
2022-10-17T17:31:53.336Z,63.43
2022-10-17T17:34:20.761Z,63.75
2022-10-17T17:36:49.005Z,63.93
2022-10-17T17:39:16.956Z,64.20
2022-10-17T17:41:47.728Z,65.13
2022-10-17T17:44:16.876Z,64.67
2022-10-17T17:46:48.427Z,64.64
2022-10-17T17:49:16.213Z,64.88
2022-10-17T17:51:46.844Z,65.30
2022-10-17T17:54:15.670Z,65.53
2022-10-17T17:56:44.152Z,65.63
2022-10-17T17:59:15.255Z,65.97
2022-10-17T18:01:43.961Z,66.26
2022-10-17T18:04:12.356Z,66.62
2022-10-17T18:06:43.655Z,66.69
2022-10-17T18:09:11.452Z,66.61
2022-10-17T18:11:39.194Z,67.49
2022-10-17T18:14:13.234Z,66.40
2022-10-17T18:16:44.576Z,67.77
2022-10-17T18:19:12.782Z,67.66
2022-10-17T18:21:41.605Z,68.28
2022-10-17T18:24:11.962Z,68.59
2022-10-17T18:26:40.639Z,68.62
2022-10-17T18:29:09.021Z,68.98
2022-10-17T18:31:41.608Z,69.59
2022-10-17T18:34:11.702Z,70.10
2022-10-17T18:36:42.296Z,70.48
2022-10-17T18:39:09.913Z,71.41
2022-10-17T18:41:38.357Z,71.73
2022-10-17T18:44:07.787Z,72.07
2022-10-17T18:46:40.810Z,71.75
2022-10-17T18:49:10.656Z,72.66
2022-10-17T18:51:39.657Z,72.88
2022-10-17T18:54:13.009Z,73.26
2022-10-17T18:56:42.761Z,74.07
2022-10-17T18:59:11.230Z,74.53
2022-10-17T19:01:40.156Z,75.27
2022-10-17T19:04:08.541Z,75.65
2022-10-17T19:06:37.781Z,75.40
2022-10-17T19:09:08.078Z,75.42
2022-10-17T19:11:36.805Z,76.88
2022-10-17T19:14:14.253Z,77.21
2022-10-17T19:16:45.291Z,77.21
2022-10-17T19:19:14.778Z,77.30
2022-10-17T19:21:43.645Z,78.09
2022-10-17T19:24:16.896Z,79.18
2022-10-17T19:26:46.437Z,79.88
2022-10-17T19:29:15.405Z,79.46
2022-10-17T19:31:43.765Z,80.72
2022-10-17T19:34:14.826Z,80.00
2022-10-17T19:36:43.732Z,80.73
2022-10-17T19:39:20.326Z,80.16
2022-10-17T19:41:48.546Z,81.20
2022-10-17T19:44:16.935Z,80.57
2022-10-17T19:46:47.162Z,81.21
2022-10-17T19:49:15.873Z,80.77
2022-10-17T19:51:44.569Z,80.77
2022-10-17T19:54:15.465Z,81.34
2022-10-17T19:56:49.067Z,81.01
2022-10-17T19:59:20.104Z,81.38
2022-10-17T20:01:48.263Z,80.99
2022-10-17T20:04:15.898Z,80.07
2022-10-17T20:06:43.769Z,80.39
2022-10-17T20:09:17.047Z,80.35
2022-10-17T20:11:50.155Z,80.32
2022-10-17T20:14:19.590Z,80.73
2022-10-17T20:16:51.246Z,80.31
2022-10-17T20:19:19.826Z,80.68
2022-10-17T20:21:47.784Z,80.95
2022-10-17T20:24:16.803Z,81.02
2022-10-17T20:26:45.680Z,80.49
2022-10-17T20:29:19.916Z,82.01
2022-10-17T20:31:50.341Z,82.54
2022-10-17T20:34:19.075Z,81.88
2022-10-17T20:36:47.503Z,82.14
2022-10-17T20:39:16.148Z,82.55
2022-10-17T20:41:44.682Z,82.20
2022-10-17T20:44:14.601Z,82.15
2022-10-17T20:46:48.678Z,83.70
2022-10-17T20:49:20.682Z,85.67
2022-10-17T20:51:47.795Z,86.05
2022-10-17T20:54:14.794Z,87.39
2022-10-17T20:56:42.104Z,89.56
2022-10-17T20:59:14.424Z,91.04
2022-10-17T21:01:42.247Z,97.11
2022-10-17T21:04:43.966Z,100.00
2022-10-17T21:06:56.693Z,100.00
2022-10-17T21:09:24.149Z,100.00
2022-10-17T21:11:55.059Z,100.00
2022-10-17T21:14:23.503Z,100.00
2022-10-17T21:16:52.377Z,100.00
2022-10-17T21:19:22.073Z,100.00
2022-10-17T21:21:49.835Z,100.00
2022-10-17T21:24:19.462Z,100.00
2022-10-17T21:26:50.086Z,100.00
2022-10-17T21:29:16.992Z,100.00
2022-10-17T21:31:45.340Z,100.00
2022-10-17T21:34:18.534Z,100.00
2022-10-17T21:36:48.290Z,100.00
2022-10-17T21:39:17.386Z,100.00
2022-10-17T21:41:45.500Z,100.00
2022-10-17T21:44:15.831Z,100.00
2022-10-17T21:46:43.295Z,100.00
2022-10-17T21:49:19.466Z,100.00
2022-10-17T21:51:50.447Z,100.00
2022-10-17T21:54:19.669Z,100.00
2022-10-17T21:56:46.966Z,100.00
2022-10-17T21:59:13.962Z,100.00
2022-10-17T22:01:45.776Z,100.00
2022-10-17T22:04:16.259Z,100.00
2022-10-17T22:06:45.591Z,100.00
2022-10-17T22:09:16.368Z,100.00
2022-10-17T22:11:49.036Z,100.00
2022-10-17T22:14:19.986Z,100.00
2022-10-17T22:16:48.214Z,100.00
2022-10-17T22:19:21.200Z,100.00
2022-10-17T22:21:49.131Z,100.00
2022-10-17T22:24:18.563Z,100.00
2022-10-17T22:26:46.621Z,100.00
2022-10-17T22:29:14.166Z,100.00
2022-10-17T22:31:41.668Z,100.00
2022-10-17T22:34:11.092Z,100.00
2022-10-17T22:36:38.249Z,100.00
2022-10-17T22:39:05.205Z,100.00
2022-10-17T22:41:32.869Z,100.00
2022-10-17T22:44:00.230Z,100.00
2022-10-17T22:46:30.095Z,100.00
2022-10-17T22:48:59.401Z,100.00
2022-10-17T22:51:26.924Z,100.00
2022-10-17T22:53:56.724Z,100.00
2022-10-17T22:56:23.890Z,100.00
2022-10-17T22:58:51.814Z,100.00
2022-10-17T23:01:22.278Z,100.00
2022-10-17T23:03:50.474Z,100.00
2022-10-17T23:06:18.430Z,100.00
2022-10-17T23:08:45.956Z,100.00
2022-10-17T23:11:13.063Z,100.00
2022-10-17T23:13:41.045Z,100.00
2022-10-17T23:16:09.294Z,100.00
2022-10-17T23:18:38.063Z,100.00
2022-10-17T23:21:05.876Z,100.00
2022-10-17T23:23:32.802Z,100.00
2022-10-17T23:26:10.378Z,100.00
2022-10-17T23:28:38.371Z,100.00
2022-10-17T23:31:17.379Z,100.00
2022-10-17T23:33:46.012Z,100.00
2022-10-17T23:36:15.169Z,100.00
2022-10-17T23:38:45.545Z,100.00
2022-10-17T23:41:13.246Z,100.00
2022-10-17T23:43:44.122Z,100.00
2022-10-17T23:46:12.182Z,100.00
2022-10-17T23:48:40.167Z,100.00
2022-10-17T23:51:10.895Z,100.00
2022-10-17T23:53:38.693Z,100.00
2022-10-17T23:56:07.818Z,100.00
2022-10-17T23:58:37.846Z,100.00
